Port Mansfield, Texas
Current Conditions -  °F | °C
As of 4:52 AM on Saturday 25 Oct 2014 (Local Time) from KHRL Reporting Station
Haze Haze  
Wind Chill: 63°   Ceiling: Unl
Heat Index: 63°   Visibility: 6mi
Dew Point: 62°   Wind: 3mph
Humidity: 97%   Direction: 280°W
Pressure: 30.11"   Gusts: NA
Location:  26.56°N, 97.43°W
Report Text: KHRL 250952Z 28003KT 6SM BR CLR 17/17 A3011 RMK AO2 SLP195 T01720167
Loading
Personal Weather Stations






























Interactive Weather Map
Tropical Storm Tracking
New forecast layout! Learn more

10-Day Weather Forecast

Advertisements
Track Severe Weather on mobile